sensor_id;sensor_type;location;lat;lon;timestamp;P1;durP1;ratioP1;P2;durP2;ratioP2
17892;SDS011;9072;51.918;4.380;2023-09-19T00:01:00;7.60;;;2.63;;
17892;SDS011;9072;51.918;4.380;2023-09-19T00:03:34;9.13;;;3.37;;
17892;SDS011;9072;51.918;4.380;2023-09-19T00:06:18;11.07;;;3.30;;
17892;SDS011;9072;51.918;4.380;2023-09-19T00:08:46;11.53;;;3.60;;
17892;SDS011;9072;51.918;4.380;2023-09-19T00:11:14;12.63;;;3.50;;
17892;SDS011;9072;51.918;4.380;2023-09-19T00:13:48;12.10;;;3.30;;
17892;SDS011;9072;51.918;4.380;2023-09-19T00:16:19;7.43;;;3.43;;
17892;SDS011;9072;51.918;4.380;2023-09-19T00:18:48;12.53;;;3.87;;
17892;SDS011;9072;51.918;4.380;2023-09-19T00:21:17;14.33;;;3.90;;
17892;SDS011;9072;51.918;4.380;2023-09-19T00:23:48;11.80;;;3.90;;
17892;SDS011;9072;51.918;4.380;2023-09-19T00:26:17;16.60;;;4.03;;
17892;SDS011;9072;51.918;4.380;2023-09-19T00:28:53;15.97;;;4.03;;
17892;SDS011;9072;51.918;4.380;2023-09-19T00:31:22;18.27;;;4.80;;
17892;SDS011;9072;51.918;4.380;2023-09-19T00:33:50;14.53;;;4.03;;
17892;SDS011;9072;51.918;4.380;2023-09-19T00:36:18;15.33;;;3.70;;
17892;SDS011;9072;51.918;4.380;2023-09-19T00:38:46;19.13;;;4.23;;
17892;SDS011;9072;51.918;4.380;2023-09-19T00:41:14;17.50;;;4.30;;
17892;SDS011;9072;51.918;4.380;2023-09-19T00:43:41;12.37;;;3.77;;
17892;SDS011;9072;51.918;4.380;2023-09-19T00:46:10;15.60;;;3.73;;
17892;SDS011;9072;51.918;4.380;2023-09-19T00:48:38;10.27;;;3.23;;
17892;SDS011;9072;51.918;4.380;2023-09-19T00:51:09;13.97;;;3.60;;
17892;SDS011;9072;51.918;4.380;2023-09-19T00:53:39;13.37;;;3.50;;
17892;SDS011;9072;51.918;4.380;2023-09-19T00:56:11;13.13;;;3.10;;
17892;SDS011;9072;51.918;4.380;2023-09-19T00:58:40;11.47;;;3.77;;
17892;SDS011;9072;51.918;4.380;2023-09-19T01:01:07;13.80;;;3.80;;
17892;SDS011;9072;51.918;4.380;2023-09-19T01:03:37;13.13;;;3.87;;
17892;SDS011;9072;51.918;4.380;2023-09-19T01:06:05;13.17;;;3.20;;
17892;SDS011;9072;51.918;4.380;2023-09-19T01:08:33;10.80;;;3.10;;
17892;SDS011;9072;51.918;4.380;2023-09-19T01:11:03;13.53;;;3.53;;
17892;SDS011;9072;51.918;4.380;2023-09-19T01:13:41;12.93;;;3.50;;
17892;SDS011;9072;51.918;4.380;2023-09-19T01:16:22;11.77;;;3.30;;
17892;SDS011;9072;51.918;4.380;2023-09-19T01:19:04;12.23;;;3.03;;
17892;SDS011;9072;51.918;4.380;2023-09-19T01:21:47;14.73;;;3.77;;
17892;SDS011;9072;51.918;4.380;2023-09-19T01:24:40;14.10;;;3.50;;
17892;SDS011;9072;51.918;4.380;2023-09-19T01:27:41;7.83;;;2.97;;
17892;SDS011;9072;51.918;4.380;2023-09-19T01:30:35;9.70;;;3.10;;
17892;SDS011;9072;51.918;4.380;2023-09-19T01:33:10;11.13;;;3.23;;
17892;SDS011;9072;51.918;4.380;2023-09-19T01:35:39;11.33;;;2.90;;
17892;SDS011;9072;51.918;4.380;2023-09-19T01:38:07;9.97;;;3.07;;
17892;SDS011;9072;51.918;4.380;2023-09-19T01:40:40;17.27;;;3.53;;
17892;SDS011;9072;51.918;4.380;2023-09-19T01:43:09;14.03;;;3.17;;
17892;SDS011;9072;51.918;4.380;2023-09-19T01:45:47;11.80;;;3.73;;
17892;SDS011;9072;51.918;4.380;2023-09-19T01:48:24;16.07;;;3.77;;
17892;SDS011;9072;51.918;4.380;2023-09-19T01:50:59;12.40;;;3.83;;
17892;SDS011;9072;51.918;4.380;2023-09-19T01:53:33;14.03;;;3.87;;
17892;SDS011;9072;51.918;4.380;2023-09-19T01:56:03;13.87;;;3.30;;
17892;SDS011;9072;51.918;4.380;2023-09-19T01:58:39;10.83;;;3.27;;
17892;SDS011;9072;51.918;4.380;2023-09-19T02:01:11;13.00;;;3.43;;
17892;SDS011;9072;51.918;4.380;2023-09-19T02:03:48;10.37;;;3.00;;
17892;SDS011;9072;51.918;4.380;2023-09-19T02:06:17;10.63;;;3.40;;
17892;SDS011;9072;51.918;4.380;2023-09-19T02:08:46;9.77;;;2.97;;
17892;SDS011;9072;51.918;4.380;2023-09-19T02:11:15;8.20;;;3.30;;
17892;SDS011;9072;51.918;4.380;2023-09-19T02:13:42;10.73;;;3.20;;
17892;SDS011;9072;51.918;4.380;2023-09-19T02:16:12;11.47;;;3.10;;
17892;SDS011;9072;51.918;4.380;2023-09-19T02:18:45;9.27;;;3.27;;
17892;SDS011;9072;51.918;4.380;2023-09-19T02:21:12;9.57;;;3.00;;
17892;SDS011;9072;51.918;4.380;2023-09-19T02:23:40;9.10;;;3.07;;
17892;SDS011;9072;51.918;4.380;2023-09-19T02:26:07;9.03;;;3.10;;
17892;SDS011;9072;51.918;4.380;2023-09-19T02:28:36;11.47;;;3.20;;
17892;SDS011;9072;51.918;4.380;2023-09-19T02:31:07;10.10;;;3.03;;
17892;SDS011;9072;51.918;4.380;2023-09-19T02:33:39;8.77;;;3.03;;
17892;SDS011;9072;51.918;4.380;2023-09-19T02:36:07;10.73;;;3.10;;
17892;SDS011;9072;51.918;4.380;2023-09-19T02:38:36;8.83;;;2.97;;
17892;SDS011;9072;51.918;4.380;2023-09-19T02:41:05;8.17;;;2.90;;
17892;SDS011;9072;51.918;4.380;2023-09-19T02:43:32;11.50;;;3.47;;
17892;SDS011;9072;51.918;4.380;2023-09-19T02:46:00;11.07;;;3.10;;
17892;SDS011;9072;51.918;4.380;2023-09-19T02:48:28;8.30;;;2.70;;
17892;SDS011;9072;51.918;4.380;2023-09-19T02:50:58;9.63;;;2.83;;
17892;SDS011;9072;51.918;4.380;2023-09-19T02:53:26;8.90;;;3.10;;
17892;SDS011;9072;51.918;4.380;2023-09-19T02:55:54;11.47;;;3.27;;
17892;SDS011;9072;51.918;4.380;2023-09-19T02:58:21;8.10;;;2.80;;
17892;SDS011;9072;51.918;4.380;2023-09-19T03:00:50;13.17;;;3.73;;
17892;SDS011;9072;51.918;4.380;2023-09-19T03:03:18;6.60;;;2.67;;
17892;SDS011;9072;51.918;4.380;2023-09-19T03:05:45;13.50;;;3.30;;
17892;SDS011;9072;51.918;4.380;2023-09-19T03:08:15;10.37;;;3.00;;
17892;SDS011;9072;51.918;4.380;2023-09-19T03:10:42;10.53;;;3.07;;
17892;SDS011;9072;51.918;4.380;2023-09-19T03:13:12;8.47;;;2.83;;
17892;SDS011;9072;51.918;4.380;2023-09-19T03:15:41;11.03;;;4.03;;
17892;SDS011;9072;51.918;4.380;2023-09-19T03:18:11;11.33;;;3.30;;
17892;SDS011;9072;51.918;4.380;2023-09-19T03:20:39;12.90;;;3.30;;
17892;SDS011;9072;51.918;4.380;2023-09-19T03:23:07;8.60;;;2.73;;
17892;SDS011;9072;51.918;4.380;2023-09-19T03:25:36;8.93;;;2.90;;
17892;SDS011;9072;51.918;4.380;2023-09-19T03:28:04;6.70;;;3.20;;
17892;SDS011;9072;51.918;4.380;2023-09-19T03:30:32;11.10;;;2.97;;
17892;SDS011;9072;51.918;4.380;2023-09-19T03:33:00;8.77;;;3.03;;
17892;SDS011;9072;51.918;4.380;2023-09-19T03:35:29;9.60;;;3.07;;
17892;SDS011;9072;51.918;4.380;2023-09-19T03:37:58;12.47;;;3.30;;
17892;SDS011;9072;51.918;4.380;2023-09-19T03:40:25;12.13;;;2.80;;
17892;SDS011;9072;51.918;4.380;2023-09-19T03:42:54;14.10;;;3.20;;
17892;SDS011;9072;51.918;4.380;2023-09-19T03:45:21;9.17;;;3.07;;
17892;SDS011;9072;51.918;4.380;2023-09-19T03:47:49;9.23;;;3.47;;
17892;SDS011;9072;51.918;4.380;2023-09-19T03:50:16;9.83;;;2.87;;
17892;SDS011;9072;51.918;4.380;2023-09-19T03:52:43;11.90;;;3.43;;
17892;SDS011;9072;51.918;4.380;2023-09-19T03:55:11;11.17;;;3.87;;
17892;SDS011;9072;51.918;4.380;2023-09-19T03:57:39;8.73;;;2.70;;
17892;SDS011;9072;51.918;4.380;2023-09-19T04:00:09;7.97;;;3.33;;
17892;SDS011;9072;51.918;4.380;2023-09-19T04:02:39;10.03;;;3.23;;
17892;SDS011;9072;51.918;4.380;2023-09-19T04:05:07;11.63;;;3.33;;
17892;SDS011;9072;51.918;4.380;2023-09-19T04:07:36;9.00;;;3.20;;
17892;SDS011;9072;51.918;4.380;2023-09-19T04:10:03;11.93;;;3.47;;
17892;SDS011;9072;51.918;4.380;2023-09-19T04:12:34;8.53;;;3.53;;
17892;SDS011;9072;51.918;4.380;2023-09-19T04:15:01;12.63;;;3.50;;
17892;SDS011;9072;51.918;4.380;2023-09-19T04:17:29;9.43;;;3.17;;
17892;SDS011;9072;51.918;4.380;2023-09-19T04:19:58;9.93;;;3.10;;
17892;SDS011;9072;51.918;4.380;2023-09-19T04:22:25;13.97;;;3.80;;
17892;SDS011;9072;51.918;4.380;2023-09-19T04:24:52;11.53;;;3.77;;
17892;SDS011;9072;51.918;4.380;2023-09-19T04:27:19;16.33;;;3.70;;
17892;SDS011;9072;51.918;4.380;2023-09-19T04:29:48;14.53;;;3.50;;
17892;SDS011;9072;51.918;4.380;2023-09-19T04:32:16;12.80;;;3.47;;
17892;SDS011;9072;51.918;4.380;2023-09-19T04:34:44;9.77;;;3.40;;
17892;SDS011;9072;51.918;4.380;2023-09-19T04:37:15;8.87;;;3.27;;
17892;SDS011;9072;51.918;4.380;2023-09-19T04:39:42;10.63;;;4.00;;
17892;SDS011;9072;51.918;4.380;2023-09-19T04:42:09;14.87;;;3.43;;
17892;SDS011;9072;51.918;4.380;2023-09-19T04:44:39;9.23;;;3.10;;
17892;SDS011;9072;51.918;4.380;2023-09-19T04:47:07;9.23;;;2.87;;
17892;SDS011;9072;51.918;4.380;2023-09-19T04:49:37;11.43;;;3.20;;
17892;SDS011;9072;51.918;4.380;2023-09-19T04:52:06;15.00;;;4.13;;
17892;SDS011;9072;51.918;4.380;2023-09-19T04:54:33;15.00;;;3.67;;
17892;SDS011;9072;51.918;4.380;2023-09-19T04:57:00;7.53;;;2.73;;
17892;SDS011;9072;51.918;4.380;2023-09-19T04:59:28;12.43;;;3.10;;
17892;SDS011;9072;51.918;4.380;2023-09-19T05:01:56;15.10;;;3.87;;
17892;SDS011;9072;51.918;4.380;2023-09-19T05:04:23;10.53;;;3.33;;
17892;SDS011;9072;51.918;4.380;2023-09-19T05:06:50;11.27;;;3.20;;
17892;SDS011;9072;51.918;4.380;2023-09-19T05:09:20;17.13;;;3.90;;
17892;SDS011;9072;51.918;4.380;2023-09-19T05:11:48;14.40;;;4.13;;
17892;SDS011;9072;51.918;4.380;2023-09-19T05:14:16;12.20;;;3.60;;
17892;SDS011;9072;51.918;4.380;2023-09-19T05:16:44;15.30;;;3.70;;
17892;SDS011;9072;51.918;4.380;2023-09-19T05:19:11;13.93;;;3.83;;
17892;SDS011;9072;51.918;4.380;2023-09-19T05:21:40;15.67;;;3.43;;
17892;SDS011;9072;51.918;4.380;2023-09-19T05:24:07;15.43;;;3.47;;
17892;SDS011;9072;51.918;4.380;2023-09-19T05:26:38;9.50;;;3.50;;
17892;SDS011;9072;51.918;4.380;2023-09-19T05:29:05;16.20;;;4.00;;
17892;SDS011;9072;51.918;4.380;2023-09-19T05:31:33;15.27;;;3.80;;
17892;SDS011;9072;51.918;4.380;2023-09-19T05:34:01;13.33;;;4.20;;
17892;SDS011;9072;51.918;4.380;2023-09-19T05:36:28;13.90;;;3.93;;
17892;SDS011;9072;51.918;4.380;2023-09-19T05:38:56;13.80;;;3.53;;
17892;SDS011;9072;51.918;4.380;2023-09-19T05:41:24;14.13;;;3.63;;
17892;SDS011;9072;51.918;4.380;2023-09-19T05:43:54;13.07;;;4.13;;
17892;SDS011;9072;51.918;4.380;2023-09-19T05:46:25;11.87;;;4.00;;
17892;SDS011;9072;51.918;4.380;2023-09-19T05:48:54;13.67;;;3.77;;
17892;SDS011;9072;51.918;4.380;2023-09-19T05:51:26;16.20;;;3.70;;
17892;SDS011;9072;51.918;4.380;2023-09-19T05:53:53;13.13;;;3.70;;
17892;SDS011;9072;51.918;4.380;2023-09-19T05:56:21;11.43;;;4.00;;
17892;SDS011;9072;51.918;4.380;2023-09-19T05:58:48;16.10;;;3.73;;
17892;SDS011;9072;51.918;4.380;2023-09-19T06:01:19;13.23;;;3.77;;
17892;SDS011;9072;51.918;4.380;2023-09-19T06:03:47;10.13;;;3.73;;
17892;SDS011;9072;51.918;4.380;2023-09-19T06:06:15;14.97;;;3.57;;
17892;SDS011;9072;51.918;4.380;2023-09-19T06:08:42;15.13;;;4.37;;
17892;SDS011;9072;51.918;4.380;2023-09-19T06:11:10;17.57;;;4.60;;
17892;SDS011;9072;51.918;4.380;2023-09-19T06:13:38;18.13;;;4.40;;
17892;SDS011;9072;51.918;4.380;2023-09-19T06:16:05;13.40;;;3.73;;
17892;SDS011;9072;51.918;4.380;2023-09-19T06:18:36;18.33;;;4.40;;
17892;SDS011;9072;51.918;4.380;2023-09-19T06:21:03;15.70;;;4.73;;
17892;SDS011;9072;51.918;4.380;2023-09-19T06:23:32;17.10;;;3.77;;
17892;SDS011;9072;51.918;4.380;2023-09-19T06:26:00;15.00;;;4.00;;
17892;SDS011;9072;51.918;4.380;2023-09-19T06:28:31;13.87;;;4.87;;
17892;SDS011;9072;51.918;4.380;2023-09-19T06:30:59;15.87;;;4.33;;
17892;SDS011;9072;51.918;4.380;2023-09-19T06:33:28;15.13;;;4.27;;
17892;SDS011;9072;51.918;4.380;2023-09-19T06:35:57;15.20;;;4.17;;
17892;SDS011;9072;51.918;4.380;2023-09-19T06:38:25;12.77;;;3.60;;
17892;SDS011;9072;51.918;4.380;2023-09-19T06:40:53;12.47;;;3.73;;
17892;SDS011;9072;51.918;4.380;2023-09-19T06:43:22;13.43;;;4.07;;
17892;SDS011;9072;51.918;4.380;2023-09-19T06:45:50;14.17;;;3.97;;
17892;SDS011;9072;51.918;4.380;2023-09-19T06:48:19;12.40;;;4.20;;
17892;SDS011;9072;51.918;4.380;2023-09-19T06:50:47;16.93;;;3.97;;
17892;SDS011;9072;51.918;4.380;2023-09-19T06:53:15;11.47;;;3.87;;
17892;SDS011;9072;51.918;4.380;2023-09-19T06:55:43;18.03;;;4.37;;
17892;SDS011;9072;51.918;4.380;2023-09-19T06:58:10;16.43;;;4.03;;
17892;SDS011;9072;51.918;4.380;2023-09-19T07:00:38;13.17;;;4.20;;
17892;SDS011;9072;51.918;4.380;2023-09-19T07:03:08;16.67;;;4.57;;
17892;SDS011;9072;51.918;4.380;2023-09-19T07:05:36;11.53;;;4.00;;
17892;SDS011;9072;51.918;4.380;2023-09-19T07:08:05;18.57;;;4.47;;
17892;SDS011;9072;51.918;4.380;2023-09-19T07:10:34;14.63;;;4.10;;
17892;SDS011;9072;51.918;4.380;2023-09-19T07:13:02;13.87;;;4.00;;
17892;SDS011;9072;51.918;4.380;2023-09-19T07:15:32;13.70;;;4.03;;
17892;SDS011;9072;51.918;4.380;2023-09-19T07:18:00;15.60;;;4.60;;
17892;SDS011;9072;51.918;4.380;2023-09-19T07:20:28;16.97;;;4.30;;
17892;SDS011;9072;51.918;4.380;2023-09-19T07:22:57;19.83;;;4.73;;
17892;SDS011;9072;51.918;4.380;2023-09-19T07:25:27;18.67;;;4.57;;
17892;SDS011;9072;51.918;4.380;2023-09-19T07:27:56;12.40;;;3.80;;
17892;SDS011;9072;51.918;4.380;2023-09-19T07:30:25;14.67;;;4.43;;
17892;SDS011;9072;51.918;4.380;2023-09-19T07:32:52;16.80;;;4.30;;
17892;SDS011;9072;51.918;4.380;2023-09-19T07:35:19;13.33;;;3.47;;
17892;SDS011;9072;51.918;4.380;2023-09-19T07:37:47;17.80;;;4.70;;
17892;SDS011;9072;51.918;4.380;2023-09-19T07:40:16;12.07;;;4.00;;
17892;SDS011;9072;51.918;4.380;2023-09-19T07:42:44;14.47;;;4.33;;
17892;SDS011;9072;51.918;4.380;2023-09-19T07:45:13;13.97;;;4.53;;
17892;SDS011;9072;51.918;4.380;2023-09-19T07:47:43;16.90;;;4.17;;
17892;SDS011;9072;51.918;4.380;2023-09-19T07:50:14;14.30;;;4.23;;
17892;SDS011;9072;51.918;4.380;2023-09-19T07:52:43;13.00;;;4.20;;
17892;SDS011;9072;51.918;4.380;2023-09-19T07:55:11;15.23;;;4.03;;
17892;SDS011;9072;51.918;4.380;2023-09-19T07:57:41;18.23;;;4.90;;
17892;SDS011;9072;51.918;4.380;2023-09-19T08:00:09;16.53;;;4.40;;
17892;SDS011;9072;51.918;4.380;2023-09-19T08:02:39;11.50;;;4.10;;
17892;SDS011;9072;51.918;4.380;2023-09-19T08:05:07;13.53;;;3.87;;
17892;SDS011;9072;51.918;4.380;2023-09-19T08:07:36;13.10;;;4.17;;
17892;SDS011;9072;51.918;4.380;2023-09-19T08:10:04;12.97;;;3.90;;
17892;SDS011;9072;51.918;4.380;2023-09-19T08:12:46;11.67;;;3.63;;
17892;SDS011;9072;51.918;4.380;2023-09-19T08:15:21;16.73;;;4.30;;
17892;SDS011;9072;51.918;4.380;2023-09-19T08:17:50;12.37;;;4.20;;
17892;SDS011;9072;51.918;4.380;2023-09-19T08:20:18;18.73;;;4.37;;
17892;SDS011;9072;51.918;4.380;2023-09-19T08:22:47;13.13;;;4.17;;
17892;SDS011;9072;51.918;4.380;2023-09-19T08:25:15;12.97;;;4.23;;
17892;SDS011;9072;51.918;4.380;2023-09-19T08:27:44;15.57;;;4.17;;
17892;SDS011;9072;51.918;4.380;2023-09-19T08:30:13;22.73;;;4.90;;
17892;SDS011;9072;51.918;4.380;2023-09-19T08:32:41;14.60;;;4.33;;
17892;SDS011;9072;51.918;4.380;2023-09-19T08:35:10;15.77;;;4.33;;
17892;SDS011;9072;51.918;4.380;2023-09-19T08:37:38;14.43;;;4.33;;
17892;SDS011;9072;51.918;4.380;2023-09-19T08:40:05;18.40;;;4.53;;
17892;SDS011;9072;51.918;4.380;2023-09-19T08:42:47;11.50;;;3.80;;
17892;SDS011;9072;51.918;4.380;2023-09-19T08:45:16;13.40;;;3.63;;
17892;SDS011;9072;51.918;4.380;2023-09-19T08:47:53;19.10;;;4.37;;
17892;SDS011;9072;51.918;4.380;2023-09-19T08:50:26;13.43;;;4.20;;
17892;SDS011;9072;51.918;4.380;2023-09-19T08:52:55;12.40;;;4.07;;
17892;SDS011;9072;51.918;4.380;2023-09-19T08:55:23;13.90;;;4.20;;
17892;SDS011;9072;51.918;4.380;2023-09-19T08:57:57;12.93;;;4.30;;
17892;SDS011;9072;51.918;4.380;2023-09-19T09:00:27;11.43;;;3.90;;
17892;SDS011;9072;51.918;4.380;2023-09-19T09:02:55;10.97;;;3.30;;
17892;SDS011;9072;51.918;4.380;2023-09-19T09:05:27;13.53;;;3.90;;
17892;SDS011;9072;51.918;4.380;2023-09-19T09:07:55;15.97;;;4.17;;
17892;SDS011;9072;51.918;4.380;2023-09-19T09:10:26;13.70;;;3.93;;
17892;SDS011;9072;51.918;4.380;2023-09-19T09:12:53;13.47;;;3.80;;
17892;SDS011;9072;51.918;4.380;2023-09-19T09:15:21;11.97;;;3.60;;
17892;SDS011;9072;51.918;4.380;2023-09-19T09:17:49;11.50;;;3.83;;
17892;SDS011;9072;51.918;4.380;2023-09-19T09:20:18;13.53;;;4.07;;
17892;SDS011;9072;51.918;4.380;2023-09-19T09:22:53;16.07;;;4.03;;
17892;SDS011;9072;51.918;4.380;2023-09-19T09:25:25;8.40;;;3.70;;
17892;SDS011;9072;51.918;4.380;2023-09-19T09:28:20;13.20;;;3.90;;
17892;SDS011;9072;51.918;4.380;2023-09-19T09:30:48;12.43;;;3.97;;
17892;SDS011;9072;51.918;4.380;2023-09-19T09:33:16;11.50;;;3.65;;
17892;SDS011;9072;51.918;4.380;2023-09-19T09:35:47;10.50;;;3.83;;
17892;SDS011;9072;51.918;4.380;2023-09-19T09:38:27;10.80;;;3.85;;
17892;SDS011;9072;51.918;4.380;2023-09-19T09:41:00;8.85;;;3.20;;
17892;SDS011;9072;51.918;4.380;2023-09-19T09:43:32;10.43;;;3.65;;
17892;SDS011;9072;51.918;4.380;2023-09-19T09:46:06;13.32;;;3.80;;
17892;SDS011;9072;51.918;4.380;2023-09-19T09:48:44;10.50;;;3.33;;
17892;SDS011;9072;51.918;4.380;2023-09-19T09:51:31;10.02;;;3.00;;
17892;SDS011;9072;51.918;4.380;2023-09-19T09:54:10;7.90;;;2.97;;
17892;SDS011;9072;51.918;4.380;2023-09-19T09:56:51;9.33;;;2.80;;
17892;SDS011;9072;51.918;4.380;2023-09-19T09:59:26;11.13;;;3.53;;
17892;SDS011;9072;51.918;4.380;2023-09-19T10:02:12;9.23;;;3.13;;
17892;SDS011;9072;51.918;4.380;2023-09-19T10:04:45;8.17;;;2.80;;
17892;SDS011;9072;51.918;4.380;2023-09-19T10:07:24;8.60;;;3.00;;
17892;SDS011;9072;51.918;4.380;2023-09-19T10:09:58;9.77;;;3.20;;
17892;SDS011;9072;51.918;4.380;2023-09-19T10:12:38;9.80;;;2.60;;
17892;SDS011;9072;51.918;4.380;2023-09-19T10:15:11;9.15;;;3.20;;
17892;SDS011;9072;51.918;4.380;2023-09-19T10:17:40;8.73;;;3.00;;
17892;SDS011;9072;51.918;4.380;2023-09-19T10:20:14;12.75;;;3.25;;
17892;SDS011;9072;51.918;4.380;2023-09-19T10:23:16;7.30;;;2.50;;
17892;SDS011;9072;51.918;4.380;2023-09-19T10:25:47;7.65;;;2.28;;
17892;SDS011;9072;51.918;4.380;2023-09-19T10:28:15;9.18;;;2.97;;
17892;SDS011;9072;51.918;4.380;2023-09-19T10:30:47;8.90;;;2.50;;
17892;SDS011;9072;51.918;4.380;2023-09-19T10:33:16;9.90;;;2.88;;
17892;SDS011;9072;51.918;4.380;2023-09-19T10:35:46;9.87;;;2.87;;
17892;SDS011;9072;51.918;4.380;2023-09-19T10:38:17;8.77;;;2.60;;
17892;SDS011;9072;51.918;4.380;2023-09-19T10:40:48;7.47;;;2.92;;
17892;SDS011;9072;51.918;4.380;2023-09-19T10:43:17;6.40;;;2.58;;
17892;SDS011;9072;51.918;4.380;2023-09-19T10:45:46;8.87;;;2.70;;
17892;SDS011;9072;51.918;4.380;2023-09-19T10:48:14;7.80;;;2.50;;
17892;SDS011;9072;51.918;4.380;2023-09-19T10:50:45;8.30;;;2.53;;
17892;SDS011;9072;51.918;4.380;2023-09-19T10:53:18;10.17;;;3.20;;
17892;SDS011;9072;51.918;4.380;2023-09-19T10:55:48;7.57;;;2.67;;
17892;SDS011;9072;51.918;4.380;2023-09-19T10:58:25;7.90;;;2.63;;
17892;SDS011;9072;51.918;4.380;2023-09-19T11:00:54;7.80;;;2.47;;
17892;SDS011;9072;51.918;4.380;2023-09-19T11:03:26;6.45;;;2.60;;
17892;SDS011;9072;51.918;4.380;2023-09-19T11:06:03;6.72;;;2.55;;
17892;SDS011;9072;51.918;4.380;2023-09-19T11:08:58;9.02;;;2.50;;
17892;SDS011;9072;51.918;4.380;2023-09-19T11:11:47;12.05;;;2.50;;
17892;SDS011;9072;51.918;4.380;2023-09-19T11:17:30;5.20;;;2.37;;
17892;SDS011;9072;51.918;4.380;2023-09-19T11:25:51;8.80;;;2.20;;
17892;SDS011;9072;51.918;4.380;2023-09-19T11:28:28;9.17;;;2.53;;
17892;SDS011;9072;51.918;4.380;2023-09-19T11:40:46;6.03;;;2.23;;
17892;SDS011;9072;51.918;4.380;2023-09-19T11:43:44;7.27;;;2.50;;
17892;SDS011;9072;51.918;4.380;2023-09-19T11:46:11;8.17;;;2.57;;
17892;SDS011;9072;51.918;4.380;2023-09-19T11:48:42;7.30;;;2.37;;
17892;SDS011;9072;51.918;4.380;2023-09-19T11:51:14;7.03;;;2.17;;
17892;SDS011;9072;51.918;4.380;2023-09-19T11:53:47;9.27;;;2.23;;
17892;SDS011;9072;51.918;4.380;2023-09-19T11:56:16;6.17;;;2.03;;
17892;SDS011;9072;51.918;4.380;2023-09-19T11:58:47;3.87;;;2.10;;
17892;SDS011;9072;51.918;4.380;2023-09-19T12:01:21;5.43;;;1.97;;
17892;SDS011;9072;51.918;4.380;2023-09-19T12:03:52;7.43;;;2.07;;
17892;SDS011;9072;51.918;4.380;2023-09-19T12:06:24;5.77;;;2.33;;
17892;SDS011;9072;51.918;4.380;2023-09-19T12:08:52;6.40;;;2.10;;
17892;SDS011;9072;51.918;4.380;2023-09-19T12:11:20;7.27;;;2.33;;
17892;SDS011;9072;51.918;4.380;2023-09-19T12:13:51;11.70;;;2.20;;
17892;SDS011;9072;51.918;4.380;2023-09-19T12:16:19;4.57;;;1.97;;
17892;SDS011;9072;51.918;4.380;2023-09-19T12:18:56;5.27;;;2.20;;
17892;SDS011;9072;51.918;4.380;2023-09-19T12:21:25;5.87;;;2.13;;
17892;SDS011;9072;51.918;4.380;2023-09-19T12:23:58;7.43;;;2.03;;
17892;SDS011;9072;51.918;4.380;2023-09-19T12:26:26;9.20;;;1.97;;
17892;SDS011;9072;51.918;4.380;2023-09-19T12:28:56;6.17;;;1.93;;
17892;SDS011;9072;51.918;4.380;2023-09-19T12:31:24;7.87;;;2.03;;
17892;SDS011;9072;51.918;4.380;2023-09-19T12:33:55;5.10;;;2.00;;
17892;SDS011;9072;51.918;4.380;2023-09-19T12:36:23;5.47;;;2.33;;
17892;SDS011;9072;51.918;4.380;2023-09-19T12:38:55;6.40;;;2.37;;
17892;SDS011;9072;51.918;4.380;2023-09-19T12:41:24;8.77;;;2.03;;
17892;SDS011;9072;51.918;4.380;2023-09-19T12:43:52;6.13;;;1.93;;
17892;SDS011;9072;51.918;4.380;2023-09-19T12:46:24;5.40;;;2.20;;
17892;SDS011;9072;51.918;4.380;2023-09-19T12:51:43;4.13;;;2.10;;
17892;SDS011;9072;51.918;4.380;2023-09-19T12:54:11;6.97;;;2.30;;
17892;SDS011;9072;51.918;4.380;2023-09-19T12:56:41;6.10;;;2.73;;
17892;SDS011;9072;51.918;4.380;2023-09-19T12:59:11;9.07;;;2.30;;
17892;SDS011;9072;51.918;4.380;2023-09-19T13:01:41;7.03;;;2.67;;
17892;SDS011;9072;51.918;4.380;2023-09-19T13:04:15;6.87;;;2.50;;
17892;SDS011;9072;51.918;4.380;2023-09-19T13:06:51;5.40;;;2.43;;
17892;SDS011;9072;51.918;4.380;2023-09-19T13:09:21;8.23;;;2.30;;
17892;SDS011;9072;51.918;4.380;2023-09-19T13:11:50;7.30;;;2.93;;
17892;SDS011;9072;51.918;4.380;2023-09-19T13:14:19;7.67;;;2.33;;
17892;SDS011;9072;51.918;4.380;2023-09-19T13:17:06;9.93;;;2.50;;
17892;SDS011;9072;51.918;4.380;2023-09-19T13:19:41;6.53;;;2.33;;
17892;SDS011;9072;51.918;4.380;2023-09-19T13:25:05;5.03;;;2.30;;
17892;SDS011;9072;51.918;4.380;2023-09-19T13:27:39;10.33;;;2.67;;
17892;SDS011;9072;51.918;4.380;2023-09-19T13:30:07;6.67;;;2.80;;
17892;SDS011;9072;51.918;4.380;2023-09-19T13:32:37;10.27;;;3.03;;
17892;SDS011;9072;51.918;4.380;2023-09-19T13:35:06;7.73;;;2.90;;
17892;SDS011;9072;51.918;4.380;2023-09-19T13:37:34;8.47;;;2.97;;
17892;SDS011;9072;51.918;4.380;2023-09-19T13:40:06;7.67;;;3.20;;
17892;SDS011;9072;51.918;4.380;2023-09-19T13:42:34;8.30;;;3.37;;
17892;SDS011;9072;51.918;4.380;2023-09-19T13:45:02;6.67;;;2.97;;
17892;SDS011;9072;51.918;4.380;2023-09-19T13:47:31;10.97;;;3.10;;
17892;SDS011;9072;51.918;4.380;2023-09-19T13:50:01;9.80;;;3.13;;
17892;SDS011;9072;51.918;4.380;2023-09-19T13:52:29;8.87;;;3.10;;
17892;SDS011;9072;51.918;4.380;2023-09-19T13:54:57;9.10;;;3.20;;
17892;SDS011;9072;51.918;4.380;2023-09-19T13:57:24;7.90;;;2.83;;
17892;SDS011;9072;51.918;4.380;2023-09-19T13:59:52;6.27;;;3.07;;
17892;SDS011;9072;51.918;4.380;2023-09-19T14:02:19;5.77;;;2.90;;
17892;SDS011;9072;51.918;4.380;2023-09-19T14:04:47;8.23;;;2.70;;
17892;SDS011;9072;51.918;4.380;2023-09-19T14:07:16;11.27;;;2.80;;
17892;SDS011;9072;51.918;4.380;2023-09-19T14:09:47;12.37;;;3.30;;
17892;SDS011;9072;51.918;4.380;2023-09-19T14:12:14;9.20;;;3.37;;
17892;SDS011;9072;51.918;4.380;2023-09-19T14:14:42;9.07;;;3.20;;
17892;SDS011;9072;51.918;4.380;2023-09-19T14:17:10;6.97;;;2.57;;
17892;SDS011;9072;51.918;4.380;2023-09-19T14:19:40;8.90;;;3.20;;
17892;SDS011;9072;51.918;4.380;2023-09-19T14:22:08;10.03;;;3.03;;
17892;SDS011;9072;51.918;4.380;2023-09-19T14:24:37;8.33;;;2.97;;
17892;SDS011;9072;51.918;4.380;2023-09-19T14:27:06;11.07;;;3.10;;
17892;SDS011;9072;51.918;4.380;2023-09-19T14:29:34;9.73;;;3.00;;
17892;SDS011;9072;51.918;4.380;2023-09-19T14:32:01;5.70;;;2.60;;
17892;SDS011;9072;51.918;4.380;2023-09-19T14:34:29;8.63;;;3.07;;
17892;SDS011;9072;51.918;4.380;2023-09-19T14:36:56;10.10;;;2.80;;
17892;SDS011;9072;51.918;4.380;2023-09-19T14:39:23;8.07;;;2.67;;
17892;SDS011;9072;51.918;4.380;2023-09-19T14:41:52;9.23;;;2.90;;
17892;SDS011;9072;51.918;4.380;2023-09-19T14:44:19;5.53;;;2.53;;
17892;SDS011;9072;51.918;4.380;2023-09-19T14:46:47;7.67;;;3.07;;
17892;SDS011;9072;51.918;4.380;2023-09-19T14:49:15;5.20;;;2.90;;
17892;SDS011;9072;51.918;4.380;2023-09-19T14:51:46;10.17;;;2.97;;
17892;SDS011;9072;51.918;4.380;2023-09-19T14:54:13;9.10;;;3.07;;
17892;SDS011;9072;51.918;4.380;2023-09-19T14:56:42;8.37;;;2.87;;
17892;SDS011;9072;51.918;4.380;2023-09-19T14:59:12;9.63;;;3.03;;
17892;SDS011;9072;51.918;4.380;2023-09-19T15:01:41;8.93;;;3.17;;
17892;SDS011;9072;51.918;4.380;2023-09-19T15:04:08;7.67;;;3.00;;
17892;SDS011;9072;51.918;4.380;2023-09-19T15:06:35;9.40;;;3.30;;
17892;SDS011;9072;51.918;4.380;2023-09-19T15:09:03;9.13;;;3.23;;
17892;SDS011;9072;51.918;4.380;2023-09-19T15:11:31;10.07;;;3.03;;
17892;SDS011;9072;51.918;4.380;2023-09-19T15:13:58;7.40;;;3.20;;
17892;SDS011;9072;51.918;4.380;2023-09-19T15:16:29;11.03;;;3.60;;
17892;SDS011;9072;51.918;4.380;2023-09-19T15:18:58;10.70;;;3.23;;
17892;SDS011;9072;51.918;4.380;2023-09-19T15:21:25;9.50;;;3.07;;
17892;SDS011;9072;51.918;4.380;2023-09-19T15:23:53;5.80;;;2.93;;
17892;SDS011;9072;51.918;4.380;2023-09-19T15:26:21;4.43;;;2.70;;
17892;SDS011;9072;51.918;4.380;2023-09-19T15:28:50;7.63;;;2.90;;
17892;SDS011;9072;51.918;4.380;2023-09-19T15:31:20;8.17;;;3.07;;
17892;SDS011;9072;51.918;4.380;2023-09-19T15:33:52;9.17;;;3.17;;
17892;SDS011;9072;51.918;4.380;2023-09-19T15:36:20;9.77;;;3.27;;